createdAt,value
2022-07-25T00:03:34.780Z,3.40
2022-07-25T00:08:36.413Z,3.55
2022-07-25T00:13:37.946Z,3.97
2022-07-25T00:18:39.568Z,3.72
2022-07-25T00:23:41.171Z,3.55
2022-07-25T00:28:43.276Z,3.95
2022-07-25T00:33:44.797Z,3.80
2022-07-25T00:38:46.307Z,3.80
2022-07-25T00:43:47.949Z,3.83
2022-07-25T00:48:50.767Z,3.70
2022-07-25T00:53:52.853Z,3.78
2022-07-25T00:58:54.786Z,3.60
2022-07-25T01:03:56.487Z,3.80
2022-07-25T01:08:59.779Z,3.50
2022-07-25T01:14:01.661Z,3.72
2022-07-25T01:19:03.582Z,3.70
2022-07-25T01:24:06.865Z,3.63
2022-07-25T01:29:08.717Z,3.83
2022-07-25T01:34:10.532Z,3.70
2022-07-25T01:39:12.197Z,3.75
2022-07-25T01:44:13.977Z,3.70
2022-07-25T01:49:15.858Z,3.72
2022-07-25T01:54:17.645Z,3.87
2022-07-25T01:59:19.180Z,3.83
2022-07-25T02:04:20.833Z,3.67
2022-07-25T02:09:22.372Z,3.70
2022-07-25T02:14:23.889Z,3.67
2022-07-25T02:19:25.468Z,3.73
2022-07-25T02:24:27.119Z,3.95
2022-07-25T02:29:28.627Z,3.90
2022-07-25T02:34:30.177Z,3.88
2022-07-25T02:39:31.690Z,3.70
2022-07-25T02:44:33.207Z,3.80
2022-07-25T02:49:34.942Z,4.30
2022-07-25T02:54:36.526Z,4.10
2022-07-25T02:59:38.207Z,3.80
2022-07-25T03:04:39.870Z,3.90
2022-07-25T03:09:41.437Z,3.80
2022-07-25T03:14:43.027Z,3.83
2022-07-25T03:19:44.733Z,3.53
2022-07-25T03:24:46.484Z,4.10
2022-07-25T03:29:48.331Z,3.93
2022-07-25T03:34:49.965Z,3.73
2022-07-25T03:39:52.332Z,3.67
2022-07-25T03:44:53.918Z,4.23
2022-07-25T03:49:55.573Z,4.30
2022-07-25T03:54:57.091Z,4.13
2022-07-25T03:59:58.627Z,4.00
2022-07-25T04:05:00.467Z,5.20
2022-07-25T04:10:02.361Z,4.30
2022-07-25T04:15:04.639Z,4.10
2022-07-25T04:20:07.431Z,3.80
2022-07-25T04:25:09.310Z,4.17
2022-07-25T04:30:11.628Z,4.00
2022-07-25T04:35:13.172Z,4.10
2022-07-25T04:40:14.779Z,4.20
2022-07-25T04:45:17.554Z,4.00
2022-07-25T04:50:24.826Z,3.77
2022-07-25T04:55:26.643Z,4.30
2022-07-25T05:00:28.218Z,4.30
2022-07-25T05:05:29.703Z,4.23
2022-07-25T05:10:31.388Z,4.20
2022-07-25T05:15:33.143Z,4.20
2022-07-25T05:20:34.717Z,4.10
2022-07-25T05:25:36.284Z,3.90
2022-07-25T05:30:39.905Z,3.53
2022-07-25T05:35:41.759Z,3.90
2022-07-25T05:40:43.355Z,3.97
2022-07-25T05:45:47.261Z,3.65
2022-07-25T05:50:48.784Z,4.10
2022-07-25T05:55:50.295Z,3.70
2022-07-25T06:00:52.196Z,4.00
2022-07-25T06:05:55.471Z,3.60
2022-07-25T06:10:58.997Z,3.78
2022-07-25T06:16:01.136Z,3.53
2022-07-25T06:21:02.993Z,3.97
2022-07-25T06:26:04.615Z,3.38
2022-07-25T06:31:06.347Z,3.72
2022-07-25T06:36:08.194Z,3.42
2022-07-25T06:41:14.164Z,3.10
2022-07-25T06:46:15.837Z,3.20
2022-07-25T06:51:17.437Z,3.70
2022-07-25T06:56:19.260Z,4.03
2022-07-25T07:01:20.850Z,3.78
2022-07-25T07:06:22.573Z,3.75
2022-07-25T07:11:24.940Z,3.47
2022-07-25T07:16:26.725Z,3.80
2022-07-25T07:21:28.341Z,3.38
2022-07-25T07:26:31.059Z,3.30
2022-07-25T07:31:32.767Z,3.42
2022-07-25T07:36:34.734Z,3.35
2022-07-25T07:41:37.035Z,3.45
2022-07-25T07:46:38.907Z,3.67
2022-07-25T07:51:40.615Z,3.40
2022-07-25T07:56:42.292Z,3.70
2022-07-25T08:01:44.022Z,3.50
2022-07-25T08:06:46.710Z,3.45
2022-07-25T08:11:48.730Z,3.40
2022-07-25T08:16:52.622Z,3.70
2022-07-25T08:21:54.445Z,3.35
2022-07-25T08:26:56.108Z,3.40
2022-07-25T08:31:57.714Z,3.58
2022-07-25T08:36:59.369Z,3.20
2022-07-25T08:42:01.336Z,3.03
2022-07-25T08:47:03.331Z,3.92
2022-07-25T08:52:05.311Z,3.72
2022-07-25T08:57:06.938Z,3.72
2022-07-25T09:02:10.912Z,3.72
2022-07-25T09:07:12.527Z,3.63
2022-07-25T09:12:16.576Z,4.03
2022-07-25T09:17:22.243Z,4.03
2022-07-25T09:22:25.395Z,3.25
2022-07-25T09:27:34.349Z,3.20
2022-07-25T09:32:35.982Z,3.75
2022-07-25T09:37:37.558Z,3.53
2022-07-25T09:42:39.303Z,3.88
2022-07-25T09:47:55.368Z,3.58
2022-07-25T09:52:59.828Z,3.42
2022-07-25T09:58:01.467Z,3.08
2022-07-25T10:03:43.960Z,3.50
2022-07-25T10:08:45.685Z,3.55
2022-07-25T10:13:47.525Z,3.75
2022-07-25T10:18:53.786Z,3.60
2022-07-25T10:24:04.366Z,3.65
2022-07-25T10:29:11.104Z,3.88
2022-07-25T10:34:15.875Z,3.33
2022-07-25T10:39:19.505Z,2.90
2022-07-25T10:44:21.253Z,3.13
2022-07-25T10:49:32.188Z,3.30
2022-07-25T10:54:39.108Z,3.28
2022-07-25T10:59:41.132Z,3.25
2022-07-25T11:04:59.447Z,3.17
2022-07-25T11:10:02.851Z,3.50
2022-07-25T11:15:07.236Z,3.60
2022-07-25T11:20:10.509Z,3.55
2022-07-25T11:25:16.058Z,3.92
2022-07-25T11:30:20.757Z,4.07
2022-07-25T11:35:25.373Z,3.67
2022-07-25T11:40:27.031Z,3.50
2022-07-25T11:45:30.721Z,3.72
2022-07-25T11:50:34.396Z,3.88
2022-07-25T11:55:40.164Z,3.70
2022-07-25T12:00:44.701Z,3.60
2022-07-25T12:05:47.017Z,4.10
2022-07-25T12:10:51.102Z,4.20
2022-07-25T12:15:52.847Z,4.18
2022-07-25T12:20:54.424Z,3.85
2022-07-25T12:25:56.062Z,4.00
2022-07-25T12:30:58.232Z,4.05
2022-07-25T12:36:04.026Z,4.00
2022-07-25T12:41:08.218Z,3.95
2022-07-25T12:46:10.039Z,3.63
2022-07-25T12:51:12.379Z,3.55
2022-07-25T12:56:15.386Z,3.33
2022-07-25T13:01:17.153Z,3.20
2022-07-25T13:06:20.730Z,2.53
2022-07-25T13:11:22.371Z,2.58
2022-07-25T13:16:23.956Z,2.78
2022-07-25T13:21:25.985Z,2.80
2022-07-25T13:26:27.588Z,3.10
2022-07-25T13:31:29.371Z,2.95
2022-07-25T13:36:33.177Z,2.65
2022-07-25T13:41:34.785Z,2.75
2022-07-25T13:46:36.467Z,2.47
2022-07-25T13:51:38.093Z,2.20
2022-07-25T13:56:41.426Z,2.60
2022-07-25T14:01:44.517Z,2.50
2022-07-25T14:06:46.582Z,2.45
2022-07-25T14:11:48.524Z,2.17
2022-07-25T14:16:51.544Z,1.90
2022-07-25T14:21:53.455Z,2.00
2022-07-25T14:26:55.172Z,1.80
2022-07-25T14:31:57.002Z,2.28
2022-07-25T14:36:58.686Z,2.20
2022-07-25T14:42:00.806Z,1.90
2022-07-25T14:47:02.398Z,1.38
2022-07-25T14:52:04.243Z,1.55
2022-07-25T14:57:05.791Z,1.63
2022-07-25T15:02:07.598Z,1.60
2022-07-25T15:07:09.206Z,1.67
2022-07-25T15:12:16.139Z,1.70
2022-07-25T15:17:18.076Z,1.55
2022-07-25T15:22:19.614Z,1.60
2022-07-25T15:27:21.545Z,1.25
2022-07-25T15:32:23.233Z,1.70
2022-07-25T15:37:24.988Z,1.45
2022-07-25T15:42:29.257Z,1.33
2022-07-25T15:47:32.718Z,1.45
2022-07-25T15:52:34.328Z,1.70
2022-07-25T15:57:36.381Z,1.65
2022-07-25T16:02:37.970Z,1.75
2022-07-25T16:07:39.875Z,1.70
2022-07-25T16:12:41.442Z,2.28
2022-07-25T16:17:43.056Z,1.67
2022-07-25T16:22:45.352Z,1.38
2022-07-25T16:27:46.919Z,1.60
2022-07-25T16:32:48.535Z,1.42
2022-07-25T16:37:50.757Z,1.33
2022-07-25T16:42:55.733Z,1.50
2022-07-25T16:47:57.393Z,1.25
2022-07-25T16:52:59.129Z,1.83
2022-07-25T16:58:00.782Z,1.40
2022-07-25T17:03:02.534Z,1.50
2022-07-25T17:08:04.708Z,1.45
2022-07-25T17:13:06.372Z,1.60
2022-07-25T17:18:07.997Z,1.40
2022-07-25T17:23:09.660Z,1.60
2022-07-25T17:28:11.225Z,1.70
2022-07-25T17:33:12.834Z,1.60
2022-07-25T17:38:14.560Z,1.38
2022-07-25T17:43:16.322Z,1.40
2022-07-25T17:48:17.950Z,1.40
2022-07-25T17:53:19.560Z,1.67
2022-07-25T17:58:21.123Z,1.20
2022-07-25T18:03:23.710Z,1.65
2022-07-25T18:08:25.343Z,1.48
2022-07-25T18:13:27.108Z,1.10
2022-07-25T18:18:29.568Z,1.30
2022-07-25T18:23:31.842Z,1.52
2022-07-25T18:28:33.559Z,1.55
2022-07-25T18:33:35.179Z,1.55
2022-07-25T18:38:36.936Z,1.65
2022-07-25T18:43:38.610Z,2.03
2022-07-25T18:48:41.487Z,1.27
2022-07-25T18:53:47.787Z,1.77
2022-07-25T18:58:50.045Z,1.77
2022-07-25T19:03:52.149Z,1.50
2022-07-25T19:08:53.773Z,1.75
2022-07-25T19:13:55.474Z,1.70
2022-07-25T19:19:00.226Z,1.50
2022-07-25T19:24:02.270Z,1.63
2022-07-25T19:29:09.060Z,1.48
2022-07-25T19:34:11.591Z,1.42
2022-07-25T19:39:14.404Z,1.23
2022-07-25T19:44:16.093Z,1.00
2022-07-25T19:49:17.745Z,1.30
2022-07-25T19:54:19.647Z,1.20
2022-07-25T19:59:21.198Z,1.50
2022-07-25T20:04:23.308Z,1.17
2022-07-25T20:09:24.835Z,0.95
2022-07-25T20:14:26.710Z,1.00
2022-07-25T20:19:28.324Z,1.10
2022-07-25T20:24:30.536Z,1.23
2022-07-25T20:29:32.146Z,0.93
2022-07-25T20:34:33.991Z,1.20
2022-07-25T20:39:35.569Z,1.23
2022-07-25T20:44:37.142Z,1.13
2022-07-25T20:49:39.560Z,1.10
2022-07-25T20:54:42.828Z,0.85
2022-07-25T20:59:44.435Z,0.98
2022-07-25T21:04:48.383Z,0.77
2022-07-25T21:09:50.059Z,0.93
2022-07-25T21:14:51.715Z,0.93
2022-07-25T21:19:53.329Z,0.80
2022-07-25T21:24:55.069Z,0.90
2022-07-25T21:29:56.806Z,0.68
2022-07-25T21:34:58.702Z,0.80
2022-07-25T21:40:00.366Z,1.23
2022-07-25T21:45:02.030Z,0.75
2022-07-25T21:50:24.224Z,0.52
2022-07-25T21:55:26.595Z,0.70
2022-07-25T22:00:33.083Z,0.60
2022-07-25T22:05:35.091Z,0.77
2022-07-25T22:10:36.673Z,0.80
2022-07-25T22:15:39.503Z,0.80
2022-07-25T22:20:42.448Z,0.70
2022-07-25T22:25:43.995Z,0.68
2022-07-25T22:30:45.501Z,0.75
2022-07-25T22:35:47.076Z,0.70
2022-07-25T22:40:48.702Z,0.55
2022-07-25T22:45:54.426Z,0.65
2022-07-25T22:50:56.530Z,0.60
2022-07-25T22:55:58.129Z,0.43
2022-07-25T23:00:59.775Z,0.80
2022-07-25T23:06:01.446Z,0.63
2022-07-25T23:11:03.603Z,0.65
2022-07-25T23:16:05.888Z,0.60
2022-07-25T23:21:12.297Z,0.50
2022-07-25T23:26:13.992Z,0.98
2022-07-25T23:31:15.773Z,0.70
2022-07-25T23:36:17.319Z,1.20
2022-07-25T23:41:18.864Z,0.70
2022-07-25T23:46:24.537Z,0.67
2022-07-25T23:51:30.123Z,0.43
2022-07-25T23:56:31.709Z,0.63
